Time;durP1;ratioP1;P1;durP2;ratioP2;P2;SDS_P1;SDS_P2;PMS_P1;PMS_P2;Temp;Humidity;BMP_temperature;BMP_pressure;BME280_temperature;BME280_humidity;BME280_pressure;Samples;Min_cycle;Max_cycle;Signal;HPM_P1;HPM_P2
2022/01/13 00:01:54;;;;;;;21.05;12.88;;;2.50;80.70;;;;;;4875441;29;20523;-81
2022/01/13 00:04:16;;;;;;;30.23;14.35;;;2.60;81.10;;;;;;4886563;29;20040;-80
2022/01/13 00:06:43;;;;;;;22.08;13.48;;;2.50;81.00;;;;;;4878530;29;20080;-79
2022/01/13 00:09:10;;;;;;;23.42;12.85;;;2.40;81.40;;;;;;4884290;29;20029;-79
2022/01/13 00:11:47;;;;;;;23.65;14.02;;;2.30;81.60;;;;;;4861994;29;20519;-80
2022/01/13 00:25:35;;;;;;;22.33;12.85;;;2.30;81.10;;;;;;4946752;29;20062;-79
2022/01/13 00:28:26;;;;;;;25.80;13.02;;;2.50;81.40;;;;;;4940997;29;20066;-79
2022/01/13 00:31:05;;;;;;;26.40;13.77;;;2.50;81.40;;;;;;4904541;28;20076;-79
2022/01/13 00:33:44;;;;;;;22.40;13.20;;;2.50;81.00;;;;;;4887320;28;20064;-79
2022/01/13 00:36:34;;;;;;;24.95;14.40;;;2.40;81.50;;;;;;4910141;28;20039;-79
2022/01/13 00:39:04;;;;;;;30.73;14.20;;;2.30;82.60;;;;;;4882666;29;20115;-79
2022/01/13 00:42:10;;;;;;;22.48;13.98;;;2.30;82.20;;;;;;4892784;29;20028;-79
2022/01/13 00:44:56;;;;;;;24.98;13.82;;;2.30;81.80;;;;;;4921705;28;20033;-79
2022/01/13 00:47:22;;;;;;;23.00;12.77;;;2.30;82.30;;;;;;4911469;28;20075;-79
2022/01/13 00:49:57;;;;;;;24.90;13.23;;;2.30;82.20;;;;;;4909578;29;20509;-78
2022/01/13 00:56:11;;;;;;;24.10;13.95;;;2.10;83.60;;;;;;4893004;29;20071;-79
2022/01/13 00:58:50;;;;;;;26.65;12.30;;;2.10;83.60;;;;;;4884952;29;20095;-80
2022/01/13 01:01:31;;;;;;;24.27;13.80;;;2.00;83.50;;;;;;4891318;29;20480;-79
2022/01/13 01:03:59;;;;;;;23.58;12.50;;;2.00;83.70;;;;;;4881999;29;20104;-78
2022/01/13 01:06:34;;;;;;;22.63;13.10;;;1.90;83.20;;;;;;4877042;28;20099;-78
2022/01/13 01:12:34;;;;;;;30.00;14.43;;;2.20;81.80;;;;;;4878391;29;20087;-80
2022/01/13 01:15:20;;;;;;;23.30;12.07;;;2.40;81.20;;;;;;4891252;29;20029;-80
2022/01/13 01:18:05;;;;;;;21.60;13.48;;;2.30;81.40;;;;;;4885203;28;20040;-79
2022/01/13 01:20:47;;;;;;;21.88;12.32;;;2.30;81.40;;;;;;4892994;29;20059;-79
2022/01/13 01:26:47;;;;;;;29.17;14.18;;;2.40;81.00;;;;;;4881753;29;20048;-80
2022/01/13 01:42:54;;;;;;;24.02;13.43;;;2.30;80.30;;;;;;4869311;29;20413;-79
2022/01/13 01:49:23;;;;;;;23.60;14.07;;;2.50;79.60;;;;;;4874855;29;20547;-79
2022/01/13 01:52:26;;;;;;;24.92;13.43;;;2.50;79.40;;;;;;4877997;29;20148;-79
2022/01/13 01:55:01;;;;;;;27.45;12.80;;;2.40;80.10;;;;;;4890260;29;20029;-79
2022/01/13 01:57:30;;;;;;;23.52;14.10;;;2.30;80.40;;;;;;4888799;29;20083;-79
2022/01/13 02:00:35;;;;;;;25.45;13.93;;;2.30;80.70;;;;;;4893363;28;20032;-79
2022/01/13 02:10:30;;;;;;;23.85;13.70;;;2.20;81.10;;;;;;4884168;29;20548;-79
2022/01/13 02:16:44;;;;;;;24.42;13.52;;;2.30;80.90;;;;;;4949440;28;20200;-79
2022/01/13 02:19:45;;;;;;;21.13;12.45;;;2.30;80.50;;;;;;4930699;29;20039;-79
2022/01/13 02:32:23;;;;;;;21.83;12.45;;;2.30;79.60;;;;;;4875605;29;20400;-79
2022/01/13 02:35:44;;;;;;;26.95;14.82;;;2.30;79.40;;;;;;4877930;29;20142;-79
2022/01/13 02:38:52;;;;;;;;;;;;;;;;;;;;;
2022/01/13 02:42:14;;;;;;;21.98;12.57;;;2.30;79.80;;;;;;4848725;29;20439;-79
2022/01/13 02:51:14;;;;;;;25.13;12.48;;;2.30;79.30;;;;;;4846256;29;20077;-79
2022/01/13 02:58:00;;;;;;;;;;;;;;;;;;;;;
2022/01/13 03:01:17;;;;;;;22.95;13.65;;;2.40;78.40;;;;;;4841707;29;20026;-78
2022/01/13 03:13:56;;;;;;;23.20;12.15;;;2.30;77.60;;;;;;4837463;29;20056;-79
2022/01/13 03:20:15;;;;;;;19.23;10.98;;;2.40;77.20;;;;;;4886800;29;20596;-79
2022/01/13 03:22:50;;;;;;;19.73;11.27;;;2.50;76.70;;;;;;4888714;29;20688;-79
2022/01/13 03:36:33;;;;;;;19.52;11.25;;;2.60;75.20;;;;;;4920848;28;20037;-79
2022/01/13 03:40:14;;;;;;;;;;;;;;;;;;;;;
2022/01/13 03:46:51;;;;;;;17.85;11.02;;;2.70;74.30;;;;;;4913653;29;20084;-79
2022/01/13 03:49:21;;;;;;;21.98;9.88;;;2.80;74.00;;;;;;4873962;28;20072;-78
2022/01/13 03:52:58;;;;;;;21.15;11.27;;;2.80;73.70;;;;;;4872957;28;20100;-79
2022/01/13 03:59:45;;;;;;;;;;;;;;;;;;;;;
2022/01/13 04:03:02;;;;;;;19.83;10.80;;;2.70;73.50;;;;;;4894906;29;20042;-79
2022/01/13 04:15:37;;;;;;;19.00;10.30;;;3.20;70.10;;;;;;4952107;28;20030;-79
2022/01/13 04:21:44;;;;;;;20.02;8.93;;;3.10;70.60;;;;;;4910282;29;20365;-78
2022/01/13 04:28:37;;;;;;;14.52;9.50;;;3.30;69.30;;;;;;4917537;28;20092;-79
2022/01/13 04:31:31;;;;;;;18.05;9.82;;;3.30;68.90;;;;;;4926559;29;20034;-79
2022/01/13 04:33:57;;;;;;;20.48;10.73;;;3.30;69.10;;;;;;4905236;29;20415;-79
2022/01/13 04:37:02;;;;;;;19.05;9.65;;;3.20;69.30;;;;;;4909318;28;20024;-78
2022/01/13 04:39:32;;;;;;;20.25;10.25;;;3.10;69.80;;;;;;4899211;29;20471;-78
2022/01/13 04:42:01;;;;;;;19.23;11.23;;;3.10;70.00;;;;;;4906266;28;20033;-79
2022/01/13 04:44:27;;;;;;;17.17;9.98;;;3.00;70.70;;;;;;4900547;29;20050;-79
2022/01/13 04:47:34;;;;;;;17.63;9.65;;;3.00;70.60;;;;;;4910261;29;20036;-79
2022/01/13 04:50:03;;;;;;;18.13;10.07;;;3.00;70.50;;;;;;4904920;29;20071;-79
2022/01/13 04:52:43;;;;;;;18.15;9.57;;;2.90;70.40;;;;;;4889871;28;20412;-79
2022/01/13 04:55:30;;;;;;;16.88;9.50;;;3.00;70.50;;;;;;4903501;29;20024;-79
2022/01/13 04:58:35;;;;;;;17.48;9.20;;;3.00;70.10;;;;;;4902062;29;20021;-79
2022/01/13 05:01:22;;;;;;;15.05;9.05;;;3.00;70.10;;;;;;4907495;29;20494;-79
2022/01/13 05:04:09;;;;;;;15.00;9.07;;;3.10;69.50;;;;;;4898357;29;20037;-79
2022/01/13 05:06:42;;;;;;;15.25;8.18;;;3.10;70.00;;;;;;4896109;29;20039;-79
2022/01/13 05:09:08;;;;;;;13.90;8.45;;;3.10;68.80;;;;;;4882503;29;20028;-79
2022/01/13 05:11:39;;;;;;;13.73;8.18;;;3.10;69.10;;;;;;4907968;28;20024;-79
2022/01/13 05:14:08;;;;;;;20.90;8.70;;;3.10;68.70;;;;;;4907070;29;20155;-79
2022/01/13 05:16:59;;;;;;;19.38;8.38;;;3.20;68.40;;;;;;4896028;29;20028;-79
2022/01/13 05:19:41;;;;;;;16.00;8.27;;;3.30;68.60;;;;;;4900269;29;20020;-78
2022/01/13 05:24:40;;;;;;;15.15;9.15;;;3.30;68.60;;;;;;4900881;29;20032;-79
2022/01/13 05:27:09;;;;;;;15.38;8.90;;;3.40;68.30;;;;;;4905215;28;20127;-79
2022/01/13 05:29:38;;;;;;;13.25;7.55;;;3.50;68.20;;;;;;4903650;29;20491;-79
2022/01/13 05:32:04;;;;;;;12.88;7.07;;;3.50;67.70;;;;;;4902692;29;20240;-79
2022/01/13 05:34:36;;;;;;;12.10;5.80;;;3.60;67.30;;;;;;4899936;28;20123;-79
2022/01/13 05:37:04;;;;;;;13.20;8.52;;;3.70;66.80;;;;;;4900926;29;20036;-79
2022/01/13 05:39:30;;;;;;;13.13;7.70;;;3.80;66.40;;;;;;4904161;29;20498;-79
2022/01/13 05:41:56;;;;;;;15.13;8.63;;;3.80;66.70;;;;;;4909320;29;20553;-80
2022/01/13 05:44:22;;;;;;;15.27;8.13;;;3.80;67.10;;;;;;4901557;29;20032;-78
2022/01/13 05:46:50;;;;;;;11.88;7.32;;;3.80;66.70;;;;;;4909694;28;20032;-79
2022/01/13 05:49:16;;;;;;;14.35;8.18;;;3.80;66.70;;;;;;4902243;29;20039;-79
2022/01/13 05:51:42;;;;;;;14.57;8.38;;;3.80;66.40;;;;;;4892534;28;20376;-79
2022/01/13 05:54:08;;;;;;;16.55;7.82;;;3.80;65.60;;;;;;4902123;29;20032;-79
2022/01/13 05:56:34;;;;;;;7.30;4.45;;;3.90;65.30;;;;;;4895626;29;20032;-79
2022/01/13 05:58:59;;;;;;;14.80;8.23;;;3.90;65.10;;;;;;4884698;28;20443;-79
2022/01/13 06:01:26;;;;;;;12.10;7.32;;;3.90;64.30;;;;;;4912089;29;20025;-79
2022/01/13 06:03:54;;;;;;;9.70;6.22;;;4.00;63.70;;;;;;4902263;29;20082;-79
2022/01/13 06:06:20;;;;;;;12.60;7.13;;;4.10;63.10;;;;;;4893994;29;20484;-79
2022/01/13 06:08:49;;;;;;;8.98;5.78;;;4.10;62.70;;;;;;4904528;28;20047;-79
2022/01/13 06:11:15;;;;;;;11.77;6.90;;;4.10;62.50;;;;;;4898543;29;20025;-79
2022/01/13 06:13:41;;;;;;;13.07;6.85;;;4.10;62.70;;;;;;4903565;29;20027;-79
2022/01/13 06:16:06;;;;;;;9.93;6.45;;;4.10;63.20;;;;;;4897964;29;20016;-79
2022/01/13 06:18:38;;;;;;;13.00;7.10;;;4.00;63.20;;;;;;4888249;28;20032;-79
2022/01/13 06:21:04;;;;;;;10.05;6.30;;;4.00;63.10;;;;;;4896098;29;20024;-79
2022/01/13 06:23:30;;;;;;;10.07;6.03;;;4.00;62.90;;;;;;4901858;29;20029;-79
2022/01/13 06:25:57;;;;;;;7.65;4.35;;;4.10;62.50;;;;;;4908980;29;20047;-78
2022/01/13 06:28:24;;;;;;;8.63;5.68;;;4.20;61.70;;;;;;4902729;29;20462;-79
2022/01/13 06:30:49;;;;;;;7.63;5.45;;;4.40;61.00;;;;;;4909091;29;20103;-79
2022/01/13 06:33:16;;;;;;;10.30;4.88;;;4.40;60.40;;;;;;4905355;29;20131;-79
2022/01/13 06:35:42;;;;;;;9.35;5.25;;;4.60;60.10;;;;;;4884536;28;20603;-79
2022/01/13 06:38:08;;;;;;;11.02;5.65;;;4.60;59.60;;;;;;4902133;29;20062;-79
2022/01/13 06:40:34;;;;;;;9.38;5.72;;;4.60;60.10;;;;;;4906283;28;20055;-79
2022/01/13 06:43:00;;;;;;;9.82;6.18;;;4.50;60.50;;;;;;4901932;29;20024;-79
2022/01/13 06:45:26;;;;;;;10.45;6.40;;;4.50;60.10;;;;;;4889804;29;20040;-79
2022/01/13 06:47:52;;;;;;;9.40;5.45;;;4.60;60.10;;;;;;4904933;29;20036;-79
2022/01/13 06:50:21;;;;;;;8.82;4.32;;;4.60;59.80;;;;;;4905923;29;20391;-80
2022/01/13 06:52:48;;;;;;;6.47;4.57;;;4.70;59.40;;;;;;4887080;28;20052;-80
2022/01/13 06:55:14;;;;;;;9.38;4.95;;;4.80;59.60;;;;;;4913231;29;20017;-80
2022/01/13 06:57:44;;;;;;;6.53;4.35;;;4.80;59.10;;;;;;4905084;28;20036;-80
2022/01/13 07:00:10;;;;;;;7.55;4.38;;;4.90;59.20;;;;;;4903702;29;20040;-82
2022/01/13 07:02:36;;;;;;;7.18;4.78;;;5.00;59.40;;;;;;4901764;29;20032;-80
2022/01/13 07:05:02;;;;;;;8.57;5.35;;;5.10;59.40;;;;;;4904353;29;20505;-80
2022/01/13 07:07:34;;;;;;;9.25;5.32;;;5.10;59.40;;;;;;4906210;29;20043;-81
2022/01/13 07:10:00;;;;;;;10.43;5.30;;;5.20;59.70;;;;;;4887170;29;20118;-83
2022/01/13 07:12:29;;;;;;;8.07;5.38;;;5.20;58.50;;;;;;4888673;29;20042;-81
2022/01/13 07:14:57;;;;;;;8.38;4.53;;;5.20;58.90;;;;;;4887818;28;20055;-82
2022/01/13 07:17:23;;;;;;;7.97;4.90;;;5.20;58.90;;;;;;4908636;29;20479;-81
2022/01/13 07:19:51;;;;;;;6.85;4.75;;;5.20;59.30;;;;;;4906529;29;20020;-82
2022/01/13 07:22:18;;;;;;;8.43;5.00;;;5.20;59.50;;;;;;4903152;29;20115;-81
2022/01/13 07:24:44;;;;;;;11.10;5.07;;;5.20;58.90;;;;;;4902555;29;20036;-82
2022/01/13 07:27:10;;;;;;;9.85;4.60;;;5.10;59.00;;;;;;4910854;29;20394;-82
2022/01/13 07:29:36;;;;;;;10.40;5.00;;;5.10;58.90;;;;;;4913454;29;20107;-82
2022/01/13 07:32:02;;;;;;;15.48;5.88;;;5.10;59.00;;;;;;4890405;29;20135;-82
2022/01/13 07:34:34;;;;;;;8.85;5.80;;;5.10;58.90;;;;;;4907911;28;20033;-82
2022/01/13 07:37:00;;;;;;;9.73;5.13;;;5.10;59.20;;;;;;4890558;29;20033;-81
2022/01/13 07:39:25;;;;;;;7.72;4.88;;;5.00;59.40;;;;;;4901638;29;20777;-81
2022/01/13 07:41:51;;;;;;;7.57;5.18;;;5.10;59.20;;;;;;4898739;28;20012;-82
2022/01/13 07:44:18;;;;;;;10.95;5.57;;;5.10;59.50;;;;;;4903054;29;20043;-81
2022/01/13 07:46:44;;;;;;;8.77;5.60;;;5.10;59.10;;;;;;4904829;28;20504;-81
2022/01/13 07:49:10;;;;;;;11.90;7.05;;;5.10;59.70;;;;;;4883167;29;20036;-82
2022/01/13 07:51:36;;;;;;;7.57;4.75;;;5.20;59.10;;;;;;4908327;28;20072;-82
2022/01/13 07:54:03;;;;;;;8.90;5.03;;;5.20;59.30;;;;;;4891768;29;20126;-82
2022/01/13 07:56:29;;;;;;;10.52;5.53;;;5.30;59.40;;;;;;4919704;29;20084;-81
2022/01/13 07:58:56;;;;;;;7.15;4.97;;;5.30;59.10;;;;;;4899970;29;20065;-82
2022/01/13 08:01:21;;;;;;;8.65;5.10;;;5.40;58.70;;;;;;4908673;29;20040;-82
2022/01/13 08:03:47;;;;;;;8.65;5.28;;;5.40;59.40;;;;;;4909670;29;20037;-83
2022/01/13 08:06:14;;;;;;;12.90;5.13;;;5.50;59.60;;;;;;4916817;29;20024;-82
2022/01/13 08:08:40;;;;;;;11.13;5.57;;;5.50;59.60;;;;;;4906646;29;20116;-83
2022/01/13 08:11:07;;;;;;;13.52;6.13;;;5.50;60.00;;;;;;4902331;29;20486;-82
2022/01/13 08:13:35;;;;;;;8.25;5.13;;;5.50;60.00;;;;;;4903677;29;20043;-82
2022/01/13 08:16:06;;;;;;;7.93;5.18;;;5.50;60.30;;;;;;4904483;28;20161;-81
2022/01/13 08:21:17;;;;;;;6.22;4.80;;;5.60;60.90;;;;;;4906160;29;20162;-81
2022/01/13 08:23:43;;;;;;;11.65;5.45;;;5.70;60.10;;;;;;4898998;29;20537;-82
2022/01/13 08:26:10;;;;;;;7.13;4.35;;;5.70;59.90;;;;;;4894797;29;20111;-83
2022/01/13 08:28:36;;;;;;;9.05;4.68;;;5.90;60.20;;;;;;4902615;29;20029;-82
2022/01/13 08:31:03;;;;;;;8.23;4.97;;;5.90;60.00;;;;;;4894357;29;20487;-82
2022/01/13 08:33:30;;;;;;;6.07;4.00;;;6.00;60.40;;;;;;4886003;29;20134;-81
2022/01/13 08:35:56;;;;;;;7.05;4.30;;;6.20;59.60;;;;;;4895062;29;20040;-83
2022/01/13 08:38:24;;;;;;;8.52;4.82;;;6.30;59.60;;;;;;4903172;29;20036;-84
2022/01/13 08:40:57;;;;;;;8.38;4.70;;;6.40;60.40;;;;;;4906936;29;20532;-81
2022/01/13 08:43:23;;;;;;;7.95;4.85;;;6.50;60.30;;;;;;4901611;29;20037;-83
2022/01/13 08:45:49;;;;;;;9.35;4.88;;;6.50;60.40;;;;;;4898169;28;20029;-82
2022/01/13 08:48:17;;;;;;;8.50;4.43;;;6.50;60.70;;;;;;4884763;29;20036;-82
2022/01/13 08:50:44;;;;;;;7.57;4.72;;;6.50;60.40;;;;;;4893723;29;20029;-83
2022/01/13 08:53:10;;;;;;;7.18;4.28;;;6.60;59.90;;;;;;4901484;28;20058;-82
2022/01/13 08:55:36;;;;;;;14.00;4.40;;;6.70;60.00;;;;;;4905942;29;20036;-83
2022/01/13 08:58:05;;;;;;;8.80;4.45;;;6.70;59.70;;;;;;4883976;29;20053;-83
2022/01/13 09:00:32;;;;;;;8.80;4.05;;;6.80;59.90;;;;;;4899833;29;20063;-82
2022/01/13 09:02:58;;;;;;;7.57;4.32;;;6.80;60.00;;;;;;4902989;29;20570;-82
2022/01/13 09:05:24;;;;;;;8.90;4.97;;;6.90;59.90;;;;;;4903956;28;20031;-82
2022/01/13 09:07:49;;;;;;;7.18;4.90;;;7.00;60.30;;;;;;4904234;29;20069;-83
2022/01/13 09:10:17;;;;;;;8.52;4.72;;;7.00;59.80;;;;;;4907615;29;20111;-82
2022/01/13 09:12:44;;;;;;;7.18;4.40;;;7.10;61.10;;;;;;4888332;28;20044;-82
2022/01/13 09:15:31;;;;;;;8.80;4.60;;;7.20;60.80;;;;;;4913424;28;20032;-82
2022/01/13 09:18:08;;;;;;;6.60;3.78;;;7.30;60.70;;;;;;4895192;28;20107;-83
2022/01/13 09:20:35;;;;;;;8.95;4.70;;;7.30;59.50;;;;;;4896874;29;20096;-83
2022/01/13 09:23:05;;;;;;;9.73;4.65;;;7.40;59.60;;;;;;4883520;29;20039;-82
2022/01/13 09:25:31;;;;;;;6.97;4.05;;;7.50;59.60;;;;;;4898928;29;20028;-82
2022/01/13 09:27:56;;;;;;;9.63;4.45;;;7.50;59.20;;;;;;4886590;29;20102;-82
2022/01/13 09:30:25;;;;;;;8.02;4.30;;;7.60;59.20;;;;;;4891935;29;20048;-82
2022/01/13 09:32:51;;;;;;;6.30;3.80;;;7.60;58.90;;;;;;4904084;28;20470;-81
2022/01/13 09:35:17;;;;;;;7.72;4.07;;;7.60;59.80;;;;;;4883789;29;20027;-82
2022/01/13 09:37:43;;;;;;;6.28;4.20;;;7.70;58.70;;;;;;4896694;29;20040;-82
2022/01/13 09:40:13;;;;;;;7.82;3.78;;;7.80;59.20;;;;;;4903078;29;20028;-82
2022/01/13 09:42:58;;;;;;;6.65;4.15;;;7.80;59.20;;;;;;4903010;29;20035;-82
2022/01/13 09:45:35;;;;;;;8.77;3.95;;;7.90;59.90;;;;;;4887164;28;20032;-82
2022/01/13 09:48:04;;;;;;;7.20;3.88;;;8.00;59.40;;;;;;4898940;29;20032;-82
2022/01/13 09:50:30;;;;;;;6.47;3.72;;;8.10;60.40;;;;;;4891950;28;20484;-82
2022/01/13 09:52:59;;;;;;;8.48;3.47;;;8.10;60.50;;;;;;4901233;28;20056;-82
2022/01/13 09:55:24;;;;;;;6.90;3.47;;;8.10;60.30;;;;;;4918206;28;20042;-82
2022/01/13 09:57:52;;;;;;;7.25;3.35;;;8.10;60.90;;;;;;4904393;28;20502;-82
2022/01/13 10:00:26;;;;;;;4.93;3.35;;;8.20;60.90;;;;;;4903072;28;20060;-81
2022/01/13 10:03:08;;;;;;;5.70;3.60;;;8.20;61.10;;;;;;4900103;29;20043;-82
2022/01/13 10:05:37;;;;;;;7.05;4.07;;;8.20;61.40;;;;;;4904913;29;20028;-82
2022/01/13 10:08:03;;;;;;;7.75;3.95;;;8.20;61.90;;;;;;4883959;29;20140;-82
2022/01/13 10:10:35;;;;;;;8.23;3.50;;;8.10;62.00;;;;;;4893843;29;20032;-82
2022/01/13 10:13:08;;;;;;;7.28;3.63;;;8.10;62.60;;;;;;4887947;29;20045;-83
2022/01/13 10:18:41;;;;;;;6.53;3.20;;;8.20;63.30;;;;;;4905288;29;20043;-83
2022/01/13 10:21:35;;;;;;;6.50;3.55;;;8.20;64.30;;;;;;4910431;29;20029;-83
2022/01/13 10:24:12;;;;;;;7.90;4.60;;;8.30;64.10;;;;;;4902590;29;20068;-83
2022/01/13 10:26:55;;;;;;;9.27;5.05;;;8.30;64.60;;;;;;4897955;29;20138;-83
2022/01/13 10:29:36;;;;;;;8.77;5.60;;;8.30;65.10;;;;;;4891750;29;20112;-83
2022/01/13 10:32:03;;;;;;;12.27;5.72;;;8.10;64.90;;;;;;4908056;29;20124;-81
2022/01/13 10:34:30;;;;;;;7.97;5.55;;;8.00;66.10;;;;;;4912401;29;20036;-83
2022/01/13 10:37:12;;;;;;;7.03;4.07;;;8.10;65.90;;;;;;4907273;28;20112;-83
2022/01/13 10:39:51;;;;;;;7.00;4.43;;;8.20;66.40;;;;;;4884548;29;20036;-83
2022/01/13 10:42:44;;;;;;;6.13;4.20;;;8.40;67.30;;;;;;4907677;29;20035;-83
2022/01/13 10:45:18;;;;;;;7.13;3.40;;;8.60;65.40;;;;;;4905273;29;20040;-83
2022/01/13 10:48:13;;;;;;;5.53;3.28;;;8.80;65.70;;;;;;4892919;28;20399;-83
2022/01/13 10:50:47;;;;;;;4.05;2.63;;;9.10;65.10;;;;;;4907825;29;20048;-83
2022/01/13 10:53:20;;;;;;;5.28;2.70;;;9.20;64.90;;;;;;4903345;28;20055;-83
2022/01/13 10:55:57;;;;;;;10.32;3.28;;;9.30;65.40;;;;;;4891205;29;20029;-83
2022/01/13 10:58:31;;;;;;;6.25;3.30;;;9.40;64.10;;;;;;4904403;29;20025;-82
2022/01/13 11:00:58;;;;;;;9.32;4.22;;;9.40;65.00;;;;;;4908458;28;20020;-83
2022/01/13 11:03:27;;;;;;;6.40;4.10;;;9.50;65.00;;;;;;4901895;29;20048;-83
2022/01/13 11:06:05;;;;;;;7.63;3.88;;;9.50;66.00;;;;;;4908521;29;20029;-83
2022/01/13 11:08:44;;;;;;;3.55;2.47;;;9.60;64.80;;;;;;4904438;29;20272;-83
2022/01/13 11:11:34;;;;;;;2.75;2.28;;;9.70;64.30;;;;;;4880482;29;20499;-81
2022/01/13 11:14:08;;;;;;;3.60;2.75;;;9.60;64.40;;;;;;4898883;29;20064;-82
2022/01/13 11:16:38;;;;;;;5.05;3.33;;;9.60;64.60;;;;;;4897461;29;20029;-83
2022/01/13 11:19:07;;;;;;;10.15;4.30;;;9.60;65.10;;;;;;4903240;29;20059;-82
2022/01/13 11:21:37;;;;;;;6.72;3.30;;;9.60;65.60;;;;;;4899733;29;20383;-82
2022/01/13 11:24:03;;;;;;;10.70;3.25;;;9.70;64.60;;;;;;4900069;29;20043;-83
2022/01/13 11:26:30;;;;;;;4.70;3.35;;;9.70;64.90;;;;;;4893126;29;20036;-83
2022/01/13 11:28:57;;;;;;;5.53;3.00;;;9.80;65.60;;;;;;4903412;29;20040;-82
2022/01/13 11:31:24;;;;;;;5.47;3.55;;;9.90;65.40;;;;;;4920802;29;20027;-83
2022/01/13 11:33:50;;;;;;;7.43;3.65;;;10.00;64.70;;;;;;4902231;29;20048;-84
2022/01/13 11:36:17;;;;;;;4.70;3.17;;;10.00;64.50;;;;;;4920362;28;20058;-82
2022/01/13 11:38:55;;;;;;;5.25;3.65;;;10.00;64.10;;;;;;4925201;29;20100;-82
2022/01/13 11:41:21;;;;;;;7.28;4.78;;;10.10;64.20;;;;;;4890096;29;20025;-82
2022/01/13 11:43:50;;;;;;;9.75;5.68;;;10.00;64.40;;;;;;4899994;29;20043;-83
2022/01/13 11:46:19;;;;;;;9.48;5.00;;;9.90;65.20;;;;;;4905544;29;20045;-83
2022/01/13 11:48:57;;;;;;;9.43;5.32;;;9.80;66.30;;;;;;4888296;29;20028;-82
2022/01/13 11:51:47;;;;;;;12.90;5.38;;;9.80;65.70;;;;;;4880660;28;20035;-82
2022/01/13 11:54:27;;;;;;;7.95;5.40;;;9.70;65.50;;;;;;4897071;29;20090;-83
2022/01/13 11:57:15;;;;;;;8.38;4.55;;;9.80;65.90;;;;;;4898542;29;20279;-83
2022/01/13 12:00:01;;;;;;;7.35;4.57;;;9.80;66.10;;;;;;4895487;29;20506;-83
2022/01/13 12:02:32;;;;;;;10.00;5.40;;;10.00;66.10;;;;;;4886152;29;20070;-82
2022/01/13 12:05:18;;;;;;;14.40;7.03;;;10.10;65.30;;;;;;4887599;29;20020;-82
2022/01/13 12:07:53;;;;;;;8.80;5.80;;;10.10;65.60;;;;;;4901606;29;20025;-82
2022/01/13 12:10:34;;;;;;;8.73;4.65;;;10.10;65.70;;;;;;4902935;29;20395;-83
2022/01/13 12:13:20;;;;;;;9.40;5.05;;;10.20;65.20;;;;;;4884771;29;20052;-82
2022/01/13 12:15:46;;;;;;;7.75;4.50;;;10.20;65.40;;;;;;4894422;29;20033;-83
2022/01/13 12:18:12;;;;;;;8.45;5.43;;;10.10;65.50;;;;;;4904739;29;20403;-82
2022/01/13 12:23:39;;;;;;;7.38;4.97;;;10.00;65.60;;;;;;4899053;29;20036;-81
2022/01/13 12:26:33;;;;;;;12.43;5.28;;;9.80;65.80;;;;;;4896998;29;20127;-82
2022/01/13 12:29:26;;;;;;;14.95;5.70;;;9.90;66.60;;;;;;4883878;29;20033;-83
2022/01/13 12:31:52;;;;;;;10.30;5.18;;;10.10;66.00;;;;;;4897688;29;20025;-83
2022/01/13 12:34:33;;;;;;;19.27;5.20;;;10.30;65.50;;;;;;4883089;29;20087;-83
2022/01/13 12:37:19;;;;;;;7.60;4.93;;;10.60;64.80;;;;;;4892262;29;20024;-83
2022/01/13 12:39:58;;;;;;;7.25;4.68;;;11.00;64.50;;;;;;4896342;29;20392;-83
2022/01/13 12:42:28;;;;;;;14.50;5.63;;;11.90;63.20;;;;;;4899367;29;20059;-80
2022/01/13 12:47:39;;;;;;;8.02;4.88;;;13.00;60.50;;;;;;4904935;29;20423;-80
2022/01/13 12:50:17;;;;;;;23.27;12.88;;;14.00;58.80;;;;;;4903123;29;20376;-82
2022/01/13 12:52:44;;;;;;;10.18;4.97;;;14.20;59.00;;;;;;4899950;28;20045;-79
2022/01/13 12:55:13;;;;;;;10.77;6.05;;;14.40;58.00;;;;;;4902487;29;20039;-85
2022/01/13 12:57:54;;;;;;;10.35;5.00;;;14.70;57.60;;;;;;4883098;29;20141;-79
2022/01/13 13:00:23;;;;;;;8.40;5.28;;;14.20;58.10;;;;;;4912172;28;20020;-80
2022/01/13 13:02:52;;;;;;;7.45;5.00;;;14.40;57.90;;;;;;4902805;29;20498;-80
2022/01/13 13:05:45;;;;;;;11.18;5.28;;;14.10;57.70;;;;;;4896930;29;20021;-80
2022/01/13 13:08:12;;;;;;;;;;;14.50;57.20;;;;;;4900746;29;20032;-81
2022/01/13 13:10:44;;;;;;;9.35;5.13;;;15.40;56.00;;;;;;4905957;28;20413;-80
2022/01/13 13:13:13;;;;;;;9.32;4.70;;;15.10;56.60;;;;;;4902236;29;20036;-80
2022/01/13 13:15:40;;;;;;;10.43;5.13;;;15.10;56.20;;;;;;4904235;29;20115;-79
2022/01/13 13:18:07;;;;;;;7.18;5.53;;;14.40;57.40;;;;;;4901597;29;20039;-80
2022/01/13 13:20:36;;;;;;;9.18;5.35;;;14.60;57.80;;;;;;4908345;29;20484;-80
2022/01/13 13:23:06;;;;;;;8.45;5.50;;;15.10;56.00;;;;;;4920241;28;20075;-81
2022/01/13 13:25:41;;;;;;;6.75;4.97;;;14.90;57.00;;;;;;4903455;29;20024;-80
2022/01/13 13:28:33;;;;;;;7.90;4.80;;;14.40;56.90;;;;;;4893726;28;20113;-81
2022/01/13 13:31:06;;;;;;;7.82;5.25;;;14.20;58.00;;;;;;4906691;29;20630;-81
2022/01/13 13:33:39;;;;;;;6.97;5.10;;;15.10;56.90;;;;;;4902529;29;20036;-81
2022/01/13 13:36:09;;;;;;;;;;;14.70;56.90;;;;;;4897486;29;20047;-81
2022/01/13 13:38:47;;;;;;;8.55;5.45;;;14.60;57.50;;;;;;4906254;28;19907;-80
2022/01/13 13:41:15;;;;;;;7.85;5.53;;;15.50;55.80;;;;;;4879517;28;20025;-81
2022/01/13 13:43:41;;;;;;;17.30;9.50;;;16.20;54.60;;;;;;4900412;29;20029;-81
2022/01/13 13:46:06;;;;;;;6.72;4.00;;;16.90;53.50;;;;;;4895846;29;20036;-80
2022/01/13 13:48:32;;;;;;;5.13;4.15;;;16.20;53.00;;;;;;4911587;28;20032;-80
2022/01/13 13:50:58;;;;;;;7.68;5.60;;;16.00;54.60;;;;;;4898568;28;20032;-80
2022/01/13 13:53:24;;;;;;;8.85;6.47;;;15.90;54.80;;;;;;4906812;28;20055;-80
2022/01/13 13:56:05;;;;;;;10.73;7.05;;;16.10;54.20;;;;;;4913689;29;20021;-82
2022/01/13 13:58:31;;;;;;;7.22;4.88;;;16.00;55.00;;;;;;4907011;29;20027;-81
2022/01/13 14:01:05;;;;;;;9.38;5.60;;;15.30;55.30;;;;;;4907378;29;20031;-81
2022/01/13 14:03:52;;;;;;;8.57;4.72;;;15.30;56.30;;;;;;4908976;29;20064;-80
2022/01/13 14:06:40;;;;;;;7.45;4.57;;;16.20;54.10;;;;;;4900737;29;20541;-82
2022/01/13 14:09:07;;;;;;;9.13;5.40;;;15.90;54.40;;;;;;4901784;29;20044;-80
2022/01/13 14:11:43;;;;;;;8.75;6.05;;;15.80;54.40;;;;;;4910711;29;20029;-80
2022/01/13 14:14:12;;;;;;;6.40;5.25;;;15.40;55.70;;;;;;4906625;29;20488;-80
2022/01/13 14:17:16;;;;;;;11.50;6.07;;;15.80;55.00;;;;;;4912706;29;20028;-80
2022/01/13 14:20:09;;;;;;;10.05;6.15;;;15.50;55.30;;;;;;4912566;29;20098;-78
2022/01/13 14:22:35;;;;;;;7.10;5.57;;;15.40;55.50;;;;;;4905926;29;20036;-78
2022/01/13 14:25:01;;;;;;;18.73;10.80;;;16.40;54.10;;;;;;4905630;29;20131;-79
2022/01/13 14:27:27;;;;;;;6.35;4.30;;;17.20;52.60;;;;;;4902319;29;20039;-80
2022/01/13 14:29:54;;;;;;;8.30;4.55;;;16.60;53.10;;;;;;4921351;28;20032;-80
2022/01/13 14:32:26;;;;;;;7.80;5.30;;;15.40;53.80;;;;;;4906533;28;20037;-80
2022/01/13 14:34:53;;;;;;;12.32;5.68;;;14.20;55.80;;;;;;4910059;29;20024;-78
2022/01/13 14:37:22;;;;;;;8.52;5.07;;;13.10;57.60;;;;;;4907056;29;20040;-78
2022/01/13 14:40:09;;;;;;;9.27;4.90;;;12.50;58.80;;;;;;4886573;29;20023;-79
2022/01/13 14:42:39;;;;;;;8.20;4.47;;;12.00;60.00;;;;;;4907452;29;20024;-79
2022/01/13 14:45:27;;;;;;;8.63;4.70;;;11.90;60.20;;;;;;4888179;29;20506;-76
2022/01/13 14:47:53;;;;;;;8.20;5.18;;;11.70;60.70;;;;;;4907143;29;20035;-77
2022/01/13 14:50:20;;;;;;;6.72;4.50;;;12.00;60.20;;;;;;4908499;28;20029;-77
2022/01/13 14:52:48;;;;;;;8.00;4.63;;;12.30;59.10;;;;;;4904061;28;20061;-80
2022/01/13 14:55:14;;;;;;;7.97;4.85;;;13.00;58.80;;;;;;4907166;29;20024;-79
2022/01/13 14:57:40;;;;;;;7.50;4.53;;;13.00;57.10;;;;;;4907686;29;20083;-80
2022/01/13 15:00:06;;;;;;;9.63;4.78;;;12.50;58.20;;;;;;4901657;29;20033;-81
2022/01/13 15:02:33;;;;;;;6.80;4.60;;;12.10;58.50;;;;;;4888279;28;20039;-79
2022/01/13 15:04:58;;;;;;;6.38;4.18;;;11.50;59.90;;;;;;4921141;29;20020;-78
2022/01/13 15:07:24;;;;;;;7.75;4.28;;;11.00;61.10;;;;;;4915173;29;20067;-78
2022/01/13 15:09:50;;;;;;;6.78;4.57;;;10.70;61.40;;;;;;4904133;29;20064;-79
2022/01/13 15:12:16;;;;;;;7.75;4.68;;;10.50;61.70;;;;;;4908975;28;20032;-79
2022/01/13 15:14:45;;;;;;;7.72;4.47;;;10.70;62.00;;;;;;4915069;28;20028;-78
2022/01/13 15:17:11;;;;;;;9.52;5.13;;;10.50;61.60;;;;;;4911119;29;20094;-79
2022/01/13 15:19:37;;;;;;;8.02;4.65;;;9.90;62.80;;;;;;4881491;29;20032;-78
2022/01/13 15:22:03;;;;;;;8.30;4.43;;;9.50;64.30;;;;;;4902712;29;20036;-77
2022/01/13 15:24:29;;;;;;;7.85;5.20;;;9.30;65.00;;;;;;4904231;29;20047;-78
2022/01/13 15:26:57;;;;;;;7.07;4.68;;;9.10;65.20;;;;;;4906542;29;20029;-78
2022/01/13 15:29:26;;;;;;;7.72;4.88;;;9.00;65.40;;;;;;4906170;28;20492;-79
2022/01/13 15:31:55;;;;;;;9.75;5.30;;;8.80;65.80;;;;;;4885466;28;20038;-78
2022/01/13 15:34:21;;;;;;;10.73;4.53;;;8.60;66.40;;;;;;4899670;29;20443;-79
2022/01/13 15:36:47;;;;;;;7.60;5.00;;;8.40;66.90;;;;;;4897835;28;20068;-80
2022/01/13 15:39:12;;;;;;;9.88;4.43;;;8.30;67.70;;;;;;4909801;29;20063;-81
2022/01/13 15:41:38;;;;;;;8.07;4.75;;;8.10;67.90;;;;;;4896299;28;20025;-80